sensor_id;sensor_type;location;lat;lon;timestamp;P1;durP1;ratioP1;P2;durP2;ratioP2
60241;SDS011;46103;52.076;113.488;2024-03-17T00:00:46;18.58;;;5.93;;
60241;SDS011;46103;52.076;113.488;2024-03-17T00:03:48;17.77;;;5.85;;
60241;SDS011;46103;52.076;113.488;2024-03-17T00:06:50;13.40;;;5.55;;
60241;SDS011;46103;52.076;113.488;2024-03-17T00:09:52;15.48;;;5.72;;
60241;SDS011;46103;52.076;113.488;2024-03-17T00:12:53;17.98;;;6.55;;
60241;SDS011;46103;52.076;113.488;2024-03-17T00:15:57;17.02;;;7.07;;
60241;SDS011;46103;52.076;113.488;2024-03-17T00:19:02;11.18;;;4.72;;
60241;SDS011;46103;52.076;113.488;2024-03-17T00:22:04;10.93;;;4.80;;
60241;SDS011;46103;52.076;113.488;2024-03-17T00:25:07;7.07;;;2.90;;
60241;SDS011;46103;52.076;113.488;2024-03-17T00:28:11;7.43;;;2.58;;
60241;SDS011;46103;52.076;113.488;2024-03-17T00:31:14;7.13;;;2.13;;
60241;SDS011;46103;52.076;113.488;2024-03-17T00:34:16;6.45;;;2.75;;
60241;SDS011;46103;52.076;113.488;2024-03-17T00:37:21;5.63;;;1.90;;
60241;SDS011;46103;52.076;113.488;2024-03-17T00:40:22;5.22;;;2.33;;
60241;SDS011;46103;52.076;113.488;2024-03-17T00:43:24;5.38;;;1.98;;
60241;SDS011;46103;52.076;113.488;2024-03-17T00:46:26;4.43;;;1.75;;
60241;SDS011;46103;52.076;113.488;2024-03-17T00:49:28;5.60;;;1.92;;
60241;SDS011;46103;52.076;113.488;2024-03-17T00:53:36;7.30;;;3.05;;
60241;SDS011;46103;52.076;113.488;2024-03-17T00:56:38;7.85;;;2.72;;
60241;SDS011;46103;52.076;113.488;2024-03-17T00:59:40;4.65;;;1.88;;
60241;SDS011;46103;52.076;113.488;2024-03-17T01:02:44;6.57;;;2.85;;
60241;SDS011;46103;52.076;113.488;2024-03-17T01:05:47;7.35;;;3.42;;
60241;SDS011;46103;52.076;113.488;2024-03-17T01:08:52;7.93;;;3.03;;
60241;SDS011;46103;52.076;113.488;2024-03-17T01:11:54;6.20;;;3.15;;
60241;SDS011;46103;52.076;113.488;2024-03-17T01:14:56;6.32;;;2.92;;
60241;SDS011;46103;52.076;113.488;2024-03-17T01:17:59;4.50;;;2.13;;
60241;SDS011;46103;52.076;113.488;2024-03-17T01:21:02;9.73;;;3.50;;
60241;SDS011;46103;52.076;113.488;2024-03-17T01:24:05;9.18;;;3.42;;
60241;SDS011;46103;52.076;113.488;2024-03-17T01:27:07;12.13;;;3.58;;
60241;SDS011;46103;52.076;113.488;2024-03-17T01:30:13;6.25;;;2.95;;
60241;SDS011;46103;52.076;113.488;2024-03-17T01:33:16;5.85;;;2.13;;
60241;SDS011;46103;52.076;113.488;2024-03-17T01:36:19;8.93;;;3.30;;
60241;SDS011;46103;52.076;113.488;2024-03-17T01:39:21;8.40;;;3.50;;
60241;SDS011;46103;52.076;113.488;2024-03-17T01:42:24;9.60;;;3.65;;
60241;SDS011;46103;52.076;113.488;2024-03-17T01:45:27;8.38;;;3.83;;
60241;SDS011;46103;52.076;113.488;2024-03-17T01:48:34;10.23;;;3.90;;
60241;SDS011;46103;52.076;113.488;2024-03-17T01:51:36;11.20;;;3.55;;
60241;SDS011;46103;52.076;113.488;2024-03-17T01:54:38;10.75;;;3.60;;
60241;SDS011;46103;52.076;113.488;2024-03-17T01:57:40;9.68;;;3.58;;
60241;SDS011;46103;52.076;113.488;2024-03-17T02:00:42;8.60;;;3.08;;
60241;SDS011;46103;52.076;113.488;2024-03-17T02:03:44;9.30;;;3.40;;
60241;SDS011;46103;52.076;113.488;2024-03-17T02:06:46;8.57;;;3.40;;
60241;SDS011;46103;52.076;113.488;2024-03-17T02:09:48;8.18;;;3.78;;
60241;SDS011;46103;52.076;113.488;2024-03-17T02:12:51;10.75;;;3.63;;
60241;SDS011;46103;52.076;113.488;2024-03-17T04:17:53;4.50;;;1.30;;
60241;SDS011;46103;52.076;113.488;2024-03-17T04:21:13;2.63;;;1.13;;
60241;SDS011;46103;52.076;113.488;2024-03-17T04:24:16;3.47;;;1.17;;
60241;SDS011;46103;52.076;113.488;2024-03-17T04:27:19;4.03;;;1.60;;
60241;SDS011;46103;52.076;113.488;2024-03-17T04:30:21;3.20;;;1.10;;
60241;SDS011;46103;52.076;113.488;2024-03-17T04:33:24;3.20;;;1.40;;
60241;SDS011;46103;52.076;113.488;2024-03-17T04:36:26;3.78;;;1.27;;
60241;SDS011;46103;52.076;113.488;2024-03-17T04:39:28;3.53;;;1.35;;
60241;SDS011;46103;52.076;113.488;2024-03-17T04:42:30;5.28;;;1.70;;
60241;SDS011;46103;52.076;113.488;2024-03-17T04:45:32;5.10;;;1.88;;
60241;SDS011;46103;52.076;113.488;2024-03-17T04:48:35;4.65;;;2.00;;
60241;SDS011;46103;52.076;113.488;2024-03-17T04:51:37;3.63;;;1.48;;
60241;SDS011;46103;52.076;113.488;2024-03-17T04:54:39;4.80;;;1.50;;
60241;SDS011;46103;52.076;113.488;2024-03-17T04:57:45;3.33;;;1.30;;
60241;SDS011;46103;52.076;113.488;2024-03-17T05:00:46;5.25;;;1.52;;
60241;SDS011;46103;52.076;113.488;2024-03-17T05:03:50;3.38;;;1.33;;
60241;SDS011;46103;52.076;113.488;2024-03-17T05:06:53;3.05;;;0.90;;
60241;SDS011;46103;52.076;113.488;2024-03-17T05:09:55;3.25;;;1.50;;
60241;SDS011;46103;52.076;113.488;2024-03-17T05:12:56;5.38;;;1.67;;
60241;SDS011;46103;52.076;113.488;2024-03-17T05:16:02;3.88;;;1.70;;
60241;SDS011;46103;52.076;113.488;2024-03-17T05:19:06;4.88;;;1.88;;
60241;SDS011;46103;52.076;113.488;2024-03-17T05:22:10;5.50;;;1.92;;
60241;SDS011;46103;52.076;113.488;2024-03-17T05:25:11;3.22;;;1.50;;
60241;SDS011;46103;52.076;113.488;2024-03-17T05:28:15;3.50;;;1.73;;
60241;SDS011;46103;52.076;113.488;2024-03-17T05:31:16;4.57;;;2.00;;
60241;SDS011;46103;52.076;113.488;2024-03-17T05:34:20;4.40;;;1.55;;
60241;SDS011;46103;52.076;113.488;2024-03-17T05:37:22;2.88;;;1.20;;
60241;SDS011;46103;52.076;113.488;2024-03-17T05:40:25;3.45;;;1.30;;
60241;SDS011;46103;52.076;113.488;2024-03-17T05:43:28;3.13;;;1.40;;
60241;SDS011;46103;52.076;113.488;2024-03-17T05:46:31;5.38;;;1.50;;
60241;SDS011;46103;52.076;113.488;2024-03-17T05:49:32;5.80;;;1.70;;
60241;SDS011;46103;52.076;113.488;2024-03-17T05:55:37;3.10;;;1.70;;
60241;SDS011;46103;52.076;113.488;2024-03-17T05:58:43;4.43;;;1.60;;
60241;SDS011;46103;52.076;113.488;2024-03-17T06:01:45;2.92;;;1.20;;
60241;SDS011;46103;52.076;113.488;2024-03-17T06:04:46;2.35;;;0.80;;
60241;SDS011;46103;52.076;113.488;2024-03-17T06:07:48;3.83;;;1.38;;
60241;SDS011;46103;52.076;113.488;2024-03-17T06:13:52;4.88;;;1.40;;
60241;SDS011;46103;52.076;113.488;2024-03-17T06:16:55;5.60;;;2.25;;
60241;SDS011;46103;52.076;113.488;2024-03-17T06:19:57;2.08;;;1.17;;
60241;SDS011;46103;52.076;113.488;2024-03-17T06:22:59;6.32;;;2.10;;
60241;SDS011;46103;52.076;113.488;2024-03-17T06:26:00;6.97;;;2.40;;
60241;SDS011;46103;52.076;113.488;2024-03-17T06:29:06;5.50;;;2.50;;
60241;SDS011;46103;52.076;113.488;2024-03-17T06:32:09;6.00;;;2.10;;
60241;SDS011;46103;52.076;113.488;2024-03-17T06:35:14;3.53;;;1.60;;
60241;SDS011;46103;52.076;113.488;2024-03-17T06:38:27;4.05;;;1.58;;
60241;SDS011;46103;52.076;113.488;2024-03-17T06:41:28;3.88;;;1.45;;
60241;SDS011;46103;52.076;113.488;2024-03-17T06:44:30;3.47;;;1.55;;
60241;SDS011;46103;52.076;113.488;2024-03-17T06:47:36;5.43;;;1.75;;
60241;SDS011;46103;52.076;113.488;2024-03-17T06:50:38;2.65;;;0.90;;
60241;SDS011;46103;52.076;113.488;2024-03-17T06:53:42;4.75;;;1.55;;
60241;SDS011;46103;52.076;113.488;2024-03-17T06:56:44;6.43;;;1.73;;
60241;SDS011;46103;52.076;113.488;2024-03-17T06:59:47;4.07;;;1.63;;
60241;SDS011;46103;52.076;113.488;2024-03-17T07:02:49;4.97;;;1.60;;
60241;SDS011;46103;52.076;113.488;2024-03-17T07:05:52;4.50;;;1.88;;
60241;SDS011;46103;52.076;113.488;2024-03-17T07:08:59;3.53;;;1.35;;
60241;SDS011;46103;52.076;113.488;2024-03-17T07:12:01;3.35;;;1.55;;
60241;SDS011;46103;52.076;113.488;2024-03-17T07:18:07;4.20;;;1.85;;
60241;SDS011;46103;52.076;113.488;2024-03-17T07:21:09;4.35;;;1.48;;
60241;SDS011;46103;52.076;113.488;2024-03-17T07:24:11;5.07;;;2.03;;
60241;SDS011;46103;52.076;113.488;2024-03-17T07:27:13;4.45;;;1.33;;
60241;SDS011;46103;52.076;113.488;2024-03-17T07:33:19;3.60;;;1.25;;
60241;SDS011;46103;52.076;113.488;2024-03-17T07:36:21;4.47;;;1.67;;
60241;SDS011;46103;52.076;113.488;2024-03-17T07:39:24;2.80;;;1.58;;
60241;SDS011;46103;52.076;113.488;2024-03-17T07:42:28;4.25;;;1.45;;
60241;SDS011;46103;52.076;113.488;2024-03-17T07:45:33;3.50;;;1.40;;
60241;SDS011;46103;52.076;113.488;2024-03-17T07:48:35;4.45;;;1.70;;
60241;SDS011;46103;52.076;113.488;2024-03-17T07:51:38;4.88;;;1.50;;
60241;SDS011;46103;52.076;113.488;2024-03-17T07:54:41;4.38;;;1.70;;
60241;SDS011;46103;52.076;113.488;2024-03-17T07:57:44;3.78;;;1.58;;
60241;SDS011;46103;52.076;113.488;2024-03-17T08:03:49;4.10;;;1.83;;
60241;SDS011;46103;52.076;113.488;2024-03-17T08:06:57;4.75;;;2.45;;
60241;SDS011;46103;52.076;113.488;2024-03-17T08:09:59;3.13;;;1.30;;
60241;SDS011;46103;52.076;113.488;2024-03-17T08:13:02;3.63;;;1.33;;
60241;SDS011;46103;52.076;113.488;2024-03-17T08:16:07;4.07;;;1.58;;
60241;SDS011;46103;52.076;113.488;2024-03-17T10:10:24;4.93;;;2.55;;
60241;SDS011;46103;52.076;113.488;2024-03-17T10:16:56;16.45;;;6.72;;
60241;SDS011;46103;52.076;113.488;2024-03-17T10:23:21;10.60;;;3.72;;
60241;SDS011;46103;52.076;113.488;2024-03-17T10:26:23;8.80;;;3.13;;
60241;SDS011;46103;52.076;113.488;2024-03-17T10:29:26;9.25;;;3.25;;
60241;SDS011;46103;52.076;113.488;2024-03-17T10:32:31;3.92;;;1.65;;
60241;SDS011;46103;52.076;113.488;2024-03-17T10:35:36;8.27;;;3.00;;
60241;SDS011;46103;52.076;113.488;2024-03-17T10:38:51;4.00;;;1.80;;
60241;SDS011;46103;52.076;113.488;2024-03-17T10:41:57;2.97;;;1.42;;
60241;SDS011;46103;52.076;113.488;2024-03-17T10:45:06;6.82;;;1.88;;
60241;SDS011;46103;52.076;113.488;2024-03-17T10:48:10;5.32;;;2.38;;
60241;SDS011;46103;52.076;113.488;2024-03-17T10:51:17;5.55;;;3.15;;
60241;SDS011;46103;52.076;113.488;2024-03-17T10:54:23;9.50;;;3.50;;
60241;SDS011;46103;52.076;113.488;2024-03-17T11:00:37;12.70;;;6.55;;
60241;SDS011;46103;52.076;113.488;2024-03-17T11:03:43;20.48;;;7.47;;
60241;SDS011;46103;52.076;113.488;2024-03-17T11:06:48;29.35;;;13.68;;
60241;SDS011;46103;52.076;113.488;2024-03-17T11:09:51;27.42;;;12.68;;
60241;SDS011;46103;52.076;113.488;2024-03-17T11:13:00;22.58;;;11.18;;
60241;SDS011;46103;52.076;113.488;2024-03-17T11:19:06;38.55;;;17.23;;
60241;SDS011;46103;52.076;113.488;2024-03-17T11:22:44;37.90;;;18.73;;
60241;SDS011;46103;52.076;113.488;2024-03-17T11:25:51;22.15;;;11.23;;
60241;SDS011;46103;52.076;113.488;2024-03-17T11:28:54;36.25;;;15.40;;
60241;SDS011;46103;52.076;113.488;2024-03-17T11:31:56;33.10;;;14.30;;
60241;SDS011;46103;52.076;113.488;2024-03-17T11:35:13;32.35;;;15.38;;
60241;SDS011;46103;52.076;113.488;2024-03-17T11:41:54;21.70;;;10.32;;
60241;SDS011;46103;52.076;113.488;2024-03-17T11:44:56;21.58;;;10.50;;
60241;SDS011;46103;52.076;113.488;2024-03-17T11:47:59;23.75;;;10.32;;
60241;SDS011;46103;52.076;113.488;2024-03-17T11:51:01;19.88;;;9.23;;
60241;SDS011;46103;52.076;113.488;2024-03-17T11:54:02;16.75;;;7.82;;
60241;SDS011;46103;52.076;113.488;2024-03-17T11:57:14;17.25;;;7.30;;
60241;SDS011;46103;52.076;113.488;2024-03-17T12:00:23;13.15;;;5.78;;
60241;SDS011;46103;52.076;113.488;2024-03-17T12:03:25;12.30;;;5.38;;
60241;SDS011;46103;52.076;113.488;2024-03-17T12:06:27;11.30;;;5.45;;
60241;SDS011;46103;52.076;113.488;2024-03-17T12:09:29;15.38;;;6.32;;
60241;SDS011;46103;52.076;113.488;2024-03-17T12:12:37;14.18;;;6.57;;
60241;SDS011;46103;52.076;113.488;2024-03-17T12:15:40;15.80;;;7.20;;
60241;SDS011;46103;52.076;113.488;2024-03-17T12:18:41;17.30;;;8.10;;
60241;SDS011;46103;52.076;113.488;2024-03-17T12:21:47;14.95;;;7.25;;
60241;SDS011;46103;52.076;113.488;2024-03-17T12:24:54;14.35;;;7.97;;
60241;SDS011;46103;52.076;113.488;2024-03-17T12:27:56;15.27;;;7.13;;
60241;SDS011;46103;52.076;113.488;2024-03-17T12:30:58;21.92;;;8.65;;
60241;SDS011;46103;52.076;113.488;2024-03-17T12:34:00;23.92;;;8.70;;
60241;SDS011;46103;52.076;113.488;2024-03-17T12:37:03;21.70;;;9.30;;
60241;SDS011;46103;52.076;113.488;2024-03-17T12:40:05;21.02;;;10.18;;
60241;SDS011;46103;52.076;113.488;2024-03-17T12:43:18;20.55;;;10.10;;
60241;SDS011;46103;52.076;113.488;2024-03-17T12:46:20;21.58;;;9.70;;
60241;SDS011;46103;52.076;113.488;2024-03-17T12:49:22;23.75;;;10.57;;
60241;SDS011;46103;52.076;113.488;2024-03-17T12:52:26;19.55;;;8.95;;
60241;SDS011;46103;52.076;113.488;2024-03-17T12:55:32;16.90;;;7.80;;
60241;SDS011;46103;52.076;113.488;2024-03-17T12:58:52;14.95;;;8.00;;
60241;SDS011;46103;52.076;113.488;2024-03-17T13:02:12;15.50;;;7.40;;
60241;SDS011;46103;52.076;113.488;2024-03-17T13:05:15;15.63;;;6.95;;
60241;SDS011;46103;52.076;113.488;2024-03-17T13:08:18;14.73;;;7.30;;
60241;SDS011;46103;52.076;113.488;2024-03-17T13:11:20;17.73;;;7.70;;
60241;SDS011;46103;52.076;113.488;2024-03-17T13:14:21;10.55;;;4.93;;
60241;SDS011;46103;52.076;113.488;2024-03-17T13:17:23;24.85;;;9.18;;
60241;SDS011;46103;52.076;113.488;2024-03-17T13:20:25;17.05;;;6.07;;
60241;SDS011;46103;52.076;113.488;2024-03-17T13:23:27;11.25;;;4.93;;
60241;SDS011;46103;52.076;113.488;2024-03-17T13:26:30;11.32;;;4.80;;
60241;SDS011;46103;52.076;113.488;2024-03-17T13:29:32;15.20;;;6.00;;
60241;SDS011;46103;52.076;113.488;2024-03-17T13:32:34;17.38;;;8.20;;
60241;SDS011;46103;52.076;113.488;2024-03-17T13:35:37;24.65;;;11.25;;
60241;SDS011;46103;52.076;113.488;2024-03-17T13:38:40;22.50;;;10.60;;
60241;SDS011;46103;52.076;113.488;2024-03-17T13:41:42;22.45;;;10.27;;
60241;SDS011;46103;52.076;113.488;2024-03-17T13:44:43;34.63;;;14.82;;
60241;SDS011;46103;52.076;113.488;2024-03-17T13:50:56;33.30;;;13.13;;
60241;SDS011;46103;52.076;113.488;2024-03-17T13:53:57;18.38;;;8.43;;
60241;SDS011;46103;52.076;113.488;2024-03-17T13:56:59;19.40;;;8.02;;
60241;SDS011;46103;52.076;113.488;2024-03-17T14:00:03;48.00;;;19.65;;
60241;SDS011;46103;52.076;113.488;2024-03-17T14:03:12;40.13;;;17.13;;
60241;SDS011;46103;52.076;113.488;2024-03-17T14:06:14;49.53;;;17.83;;
60241;SDS011;46103;52.076;113.488;2024-03-17T14:09:15;36.85;;;13.43;;
60241;SDS011;46103;52.076;113.488;2024-03-17T14:12:20;26.67;;;11.98;;
60241;SDS011;46103;52.076;113.488;2024-03-17T14:15:22;20.15;;;9.45;;
60241;SDS011;46103;52.076;113.488;2024-03-17T14:18:23;14.35;;;6.70;;
60241;SDS011;46103;52.076;113.488;2024-03-17T14:21:25;16.00;;;6.53;;
60241;SDS011;46103;52.076;113.488;2024-03-17T14:24:27;33.17;;;14.57;;
60241;SDS011;46103;52.076;113.488;2024-03-17T14:27:29;20.88;;;9.25;;
60241;SDS011;46103;52.076;113.488;2024-03-17T14:30:31;43.80;;;19.60;;
60241;SDS011;46103;52.076;113.488;2024-03-17T14:33:34;31.85;;;14.60;;
60241;SDS011;46103;52.076;113.488;2024-03-17T14:36:36;23.83;;;10.68;;
60241;SDS011;46103;52.076;113.488;2024-03-17T14:39:37;22.13;;;8.93;;
60241;SDS011;46103;52.076;113.488;2024-03-17T14:42:40;68.40;;;28.45;;
60241;SDS011;46103;52.076;113.488;2024-03-17T14:45:42;19.58;;;9.13;;
60241;SDS011;46103;52.076;113.488;2024-03-17T14:48:44;32.95;;;15.85;;
60241;SDS011;46103;52.076;113.488;2024-03-17T14:51:46;32.72;;;14.43;;
60241;SDS011;46103;52.076;113.488;2024-03-17T14:54:48;53.38;;;21.75;;
60241;SDS011;46103;52.076;113.488;2024-03-17T14:57:52;57.65;;;24.08;;
60241;SDS011;46103;52.076;113.488;2024-03-17T15:00:54;58.38;;;23.92;;
60241;SDS011;46103;52.076;113.488;2024-03-17T15:03:56;71.50;;;28.95;;
60241;SDS011;46103;52.076;113.488;2024-03-17T15:06:57;65.20;;;28.45;;
60241;SDS011;46103;52.076;113.488;2024-03-17T15:09:59;51.03;;;21.60;;
60241;SDS011;46103;52.076;113.488;2024-03-17T15:13:01;43.85;;;21.30;;
60241;SDS011;46103;52.076;113.488;2024-03-17T15:16:03;40.20;;;17.52;;
60241;SDS011;46103;52.076;113.488;2024-03-17T15:19:05;36.30;;;16.27;;
60241;SDS011;46103;52.076;113.488;2024-03-17T15:22:07;36.28;;;14.55;;
60241;SDS011;46103;52.076;113.488;2024-03-17T15:25:09;38.47;;;16.05;;
60241;SDS011;46103;52.076;113.488;2024-03-17T15:28:11;30.98;;;15.20;;
60241;SDS011;46103;52.076;113.488;2024-03-17T15:31:13;32.25;;;13.73;;
60241;SDS011;46103;52.076;113.488;2024-03-17T15:34:15;32.80;;;15.35;;
60241;SDS011;46103;52.076;113.488;2024-03-17T15:37:16;29.35;;;14.88;;
60241;SDS011;46103;52.076;113.488;2024-03-17T15:40:18;36.45;;;15.05;;
60241;SDS011;46103;52.076;113.488;2024-03-17T15:43:20;33.33;;;13.18;;
60241;SDS011;46103;52.076;113.488;2024-03-17T15:46:21;33.65;;;13.95;;
60241;SDS011;46103;52.076;113.488;2024-03-17T15:49:23;36.55;;;15.23;;
60241;SDS011;46103;52.076;113.488;2024-03-17T15:52:25;34.10;;;15.52;;
60241;SDS011;46103;52.076;113.488;2024-03-17T15:55:27;33.15;;;15.18;;
60241;SDS011;46103;52.076;113.488;2024-03-17T15:58:29;33.05;;;14.13;;
60241;SDS011;46103;52.076;113.488;2024-03-17T16:01:31;37.03;;;14.60;;
60241;SDS011;46103;52.076;113.488;2024-03-17T16:04:33;32.58;;;14.02;;
60241;SDS011;46103;52.076;113.488;2024-03-17T16:07:35;38.92;;;14.55;;
60241;SDS011;46103;52.076;113.488;2024-03-17T16:10:37;26.92;;;13.05;;
60241;SDS011;46103;52.076;113.488;2024-03-17T16:13:42;28.58;;;13.20;;
60241;SDS011;46103;52.076;113.488;2024-03-17T16:16:45;26.85;;;12.50;;
60241;SDS011;46103;52.076;113.488;2024-03-17T16:19:47;20.40;;;9.13;;
60241;SDS011;46103;52.076;113.488;2024-03-17T16:22:49;26.83;;;10.30;;
60241;SDS011;46103;52.076;113.488;2024-03-17T16:25:54;20.58;;;10.25;;
60241;SDS011;46103;52.076;113.488;2024-03-17T16:28:58;22.50;;;9.70;;
60241;SDS011;46103;52.076;113.488;2024-03-17T16:32:01;26.83;;;10.90;;
60241;SDS011;46103;52.076;113.488;2024-03-17T16:35:04;26.38;;;11.57;;
60241;SDS011;46103;52.076;113.488;2024-03-17T16:38:05;24.40;;;11.10;;
60241;SDS011;46103;52.076;113.488;2024-03-17T16:41:08;24.38;;;10.77;;
60241;SDS011;46103;52.076;113.488;2024-03-17T16:44:14;21.48;;;9.68;;
60241;SDS011;46103;52.076;113.488;2024-03-17T16:47:40;28.48;;;10.77;;
60241;SDS011;46103;52.076;113.488;2024-03-17T16:50:42;25.50;;;10.95;;
60241;SDS011;46103;52.076;113.488;2024-03-17T16:53:44;27.95;;;9.93;;
60241;SDS011;46103;52.076;113.488;2024-03-17T16:59:49;23.80;;;9.77;;
60241;SDS011;46103;52.076;113.488;2024-03-17T17:02:51;25.25;;;11.05;;
60241;SDS011;46103;52.076;113.488;2024-03-17T17:05:53;31.45;;;11.63;;
60241;SDS011;46103;52.076;113.488;2024-03-17T17:08:54;36.78;;;12.15;;
60241;SDS011;46103;52.076;113.488;2024-03-17T17:11:56;40.03;;;18.48;;
60241;SDS011;46103;52.076;113.488;2024-03-17T17:14:58;40.40;;;16.20;;
60241;SDS011;46103;52.076;113.488;2024-03-17T17:18:00;26.73;;;13.27;;
60241;SDS011;46103;52.076;113.488;2024-03-17T17:21:03;33.90;;;12.82;;
60241;SDS011;46103;52.076;113.488;2024-03-17T17:24:05;26.33;;;11.15;;
60241;SDS011;46103;52.076;113.488;2024-03-17T17:27:08;26.92;;;12.68;;
60241;SDS011;46103;52.076;113.488;2024-03-17T17:30:13;24.38;;;12.25;;
60241;SDS011;46103;52.076;113.488;2024-03-17T17:33:15;25.45;;;11.88;;
60241;SDS011;46103;52.076;113.488;2024-03-17T17:36:17;33.25;;;13.43;;
60241;SDS011;46103;52.076;113.488;2024-03-17T17:39:18;28.33;;;13.68;;
60241;SDS011;46103;52.076;113.488;2024-03-17T17:42:21;35.35;;;14.52;;
60241;SDS011;46103;52.076;113.488;2024-03-17T17:45:25;36.38;;;15.60;;
60241;SDS011;46103;52.076;113.488;2024-03-17T17:48:27;34.25;;;14.75;;
60241;SDS011;46103;52.076;113.488;2024-03-17T17:51:28;39.90;;;17.17;;
60241;SDS011;46103;52.076;113.488;2024-03-17T17:54:30;32.65;;;17.05;;
60241;SDS011;46103;52.076;113.488;2024-03-17T17:57:33;34.60;;;16.13;;
60241;SDS011;46103;52.076;113.488;2024-03-17T18:00:35;40.70;;;19.10;;
60241;SDS011;46103;52.076;113.488;2024-03-17T18:03:36;53.15;;;21.15;;
60241;SDS011;46103;52.076;113.488;2024-03-17T18:06:39;52.25;;;23.00;;
60241;SDS011;46103;52.076;113.488;2024-03-17T18:09:41;57.67;;;25.65;;
60241;SDS011;46103;52.076;113.488;2024-03-17T18:12:42;69.95;;;30.85;;
60241;SDS011;46103;52.076;113.488;2024-03-17T18:15:44;70.05;;;30.15;;
60241;SDS011;46103;52.076;113.488;2024-03-17T18:18:48;85.30;;;37.03;;
60241;SDS011;46103;52.076;113.488;2024-03-17T18:21:50;77.63;;;31.60;;
60241;SDS011;46103;52.076;113.488;2024-03-17T18:24:53;74.28;;;31.88;;
60241;SDS011;46103;52.076;113.488;2024-03-17T18:27:54;70.25;;;28.40;;
60241;SDS011;46103;52.076;113.488;2024-03-17T18:30:56;103.68;;;41.08;;
60241;SDS011;46103;52.076;113.488;2024-03-17T18:33:59;69.03;;;29.15;;
60241;SDS011;46103;52.076;113.488;2024-03-17T18:37:01;74.82;;;34.10;;
60241;SDS011;46103;52.076;113.488;2024-03-17T18:40:04;76.00;;;31.67;;
60241;SDS011;46103;52.076;113.488;2024-03-17T18:43:06;64.30;;;27.42;;
60241;SDS011;46103;52.076;113.488;2024-03-17T18:46:09;76.13;;;28.88;;
60241;SDS011;46103;52.076;113.488;2024-03-17T18:49:11;87.45;;;35.20;;
60241;SDS011;46103;52.076;113.488;2024-03-17T18:52:13;80.60;;;31.60;;
60241;SDS011;46103;52.076;113.488;2024-03-17T18:55:16;86.03;;;33.83;;
60241;SDS011;46103;52.076;113.488;2024-03-17T18:58:19;75.03;;;32.42;;
60241;SDS011;46103;52.076;113.488;2024-03-17T19:01:20;81.35;;;34.55;;
60241;SDS011;46103;52.076;113.488;2024-03-17T19:04:22;75.05;;;29.05;;
60241;SDS011;46103;52.076;113.488;2024-03-17T19:07:24;73.05;;;28.50;;
60241;SDS011;46103;52.076;113.488;2024-03-17T19:10:29;77.78;;;30.50;;
60241;SDS011;46103;52.076;113.488;2024-03-17T19:13:31;69.05;;;28.55;;
60241;SDS011;46103;52.076;113.488;2024-03-17T19:16:33;71.53;;;27.85;;
60241;SDS011;46103;52.076;113.488;2024-03-17T19:19:35;72.93;;;31.20;;
60241;SDS011;46103;52.076;113.488;2024-03-17T19:22:39;64.15;;;25.52;;
60241;SDS011;46103;52.076;113.488;2024-03-17T19:25:41;51.95;;;24.08;;
60241;SDS011;46103;52.076;113.488;2024-03-17T19:28:45;50.70;;;20.38;;
60241;SDS011;46103;52.076;113.488;2024-03-17T19:31:47;49.60;;;20.17;;
60241;SDS011;46103;52.076;113.488;2024-03-17T19:34:48;39.40;;;17.13;;
60241;SDS011;46103;52.076;113.488;2024-03-17T19:37:50;42.17;;;18.25;;
60241;SDS011;46103;52.076;113.488;2024-03-17T19:40:55;39.35;;;16.35;;
60241;SDS011;46103;52.076;113.488;2024-03-17T19:43:58;45.63;;;18.30;;
60241;SDS011;46103;52.076;113.488;2024-03-17T19:47:00;41.03;;;19.15;;
60241;SDS011;46103;52.076;113.488;2024-03-17T19:50:02;42.17;;;18.50;;
60241;SDS011;46103;52.076;113.488;2024-03-17T19:53:04;42.88;;;19.33;;
60241;SDS011;46103;52.076;113.488;2024-03-17T19:56:06;37.65;;;17.83;;
60241;SDS011;46103;52.076;113.488;2024-03-17T19:59:11;27.70;;;11.95;;
60241;SDS011;46103;52.076;113.488;2024-03-17T20:02:12;24.20;;;10.23;;
60241;SDS011;46103;52.076;113.488;2024-03-17T20:05:14;23.15;;;9.88;;
60241;SDS011;46103;52.076;113.488;2024-03-17T20:08:16;23.60;;;11.85;;
60241;SDS011;46103;52.076;113.488;2024-03-17T20:11:18;25.23;;;11.95;;
60241;SDS011;46103;52.076;113.488;2024-03-17T20:14:23;25.83;;;10.13;;
60241;SDS011;46103;52.076;113.488;2024-03-17T20:17:25;30.67;;;14.02;;
60241;SDS011;46103;52.076;113.488;2024-03-17T20:20:26;28.15;;;11.75;;
60241;SDS011;46103;52.076;113.488;2024-03-17T20:23:28;26.98;;;11.95;;
60241;SDS011;46103;52.076;113.488;2024-03-17T20:26:30;24.20;;;11.52;;
60241;SDS011;46103;52.076;113.488;2024-03-17T20:29:33;25.27;;;11.00;;
60241;SDS011;46103;52.076;113.488;2024-03-17T20:32:35;21.33;;;11.35;;
60241;SDS011;46103;52.076;113.488;2024-03-17T20:35:37;24.33;;;10.93;;
60241;SDS011;46103;52.076;113.488;2024-03-17T20:38:38;26.98;;;10.90;;
60241;SDS011;46103;52.076;113.488;2024-03-17T20:41:40;27.42;;;11.55;;
60241;SDS011;46103;52.076;113.488;2024-03-17T20:44:42;23.98;;;11.45;;
60241;SDS011;46103;52.076;113.488;2024-03-17T20:47:44;27.60;;;12.07;;
60241;SDS011;46103;52.076;113.488;2024-03-17T20:50:45;28.52;;;12.65;;
60241;SDS011;46103;52.076;113.488;2024-03-17T20:53:49;36.35;;;15.05;;
60241;SDS011;46103;52.076;113.488;2024-03-17T20:56:51;33.08;;;12.98;;
60241;SDS011;46103;52.076;113.488;2024-03-17T20:59:53;33.28;;;13.40;;
60241;SDS011;46103;52.076;113.488;2024-03-17T21:02:59;33.53;;;13.50;;
60241;SDS011;46103;52.076;113.488;2024-03-17T21:06:01;49.97;;;23.70;;
60241;SDS011;46103;52.076;113.488;2024-03-17T21:09:03;66.88;;;27.60;;
60241;SDS011;46103;52.076;113.488;2024-03-17T21:12:06;62.80;;;27.73;;
60241;SDS011;46103;52.076;113.488;2024-03-17T21:15:08;64.80;;;27.42;;
60241;SDS011;46103;52.076;113.488;2024-03-17T21:18:13;72.97;;;27.52;;
60241;SDS011;46103;52.076;113.488;2024-03-17T21:21:15;68.45;;;28.40;;
60241;SDS011;46103;52.076;113.488;2024-03-17T21:24:17;66.15;;;28.33;;
60241;SDS011;46103;52.076;113.488;2024-03-17T21:27:18;63.33;;;28.17;;
60241;SDS011;46103;52.076;113.488;2024-03-17T21:30:20;63.00;;;27.02;;
60241;SDS011;46103;52.076;113.488;2024-03-17T21:33:22;63.92;;;26.50;;
60241;SDS011;46103;52.076;113.488;2024-03-17T21:36:23;66.15;;;28.70;;
60241;SDS011;46103;52.076;113.488;2024-03-17T21:39:25;68.03;;;26.35;;
60241;SDS011;46103;52.076;113.488;2024-03-17T21:42:28;57.60;;;25.40;;
60241;SDS011;46103;52.076;113.488;2024-03-17T21:45:30;51.65;;;22.55;;
60241;SDS011;46103;52.076;113.488;2024-03-17T21:48:31;45.08;;;20.52;;
60241;SDS011;46103;52.076;113.488;2024-03-17T21:51:33;40.45;;;19.58;;
60241;SDS011;46103;52.076;113.488;2024-03-17T21:54:34;44.15;;;18.08;;
60241;SDS011;46103;52.076;113.488;2024-03-17T21:57:37;38.97;;;18.45;;
60241;SDS011;46103;52.076;113.488;2024-03-17T22:00:40;42.17;;;17.58;;
60241;SDS011;46103;52.076;113.488;2024-03-17T22:03:42;39.78;;;17.55;;